createdAt,value
2022-08-18T00:00:52.025Z,98
2022-08-18T00:01:52.169Z,98.49
2022-08-18T00:03:10.566Z,96.66
2022-08-18T00:04:58.314Z,97.81
2022-08-18T00:05:55.767Z,98.2
2022-08-18T00:06:55.672Z,97.62
2022-08-18T00:07:56.869Z,97.24
2022-08-18T00:08:58.248Z,98
2022-08-18T00:09:57.745Z,98.58
2022-08-18T00:10:58.045Z,98
2022-08-18T00:11:57.964Z,98.78
2022-08-18T00:13:04.247Z,98.97
2022-08-18T00:13:59.741Z,98.39
2022-08-18T00:14:59.938Z,98.92
2022-08-18T00:16:00.279Z,97.38
2022-08-18T00:17:00.777Z,97.52
2022-08-18T00:18:00.987Z,97.81
2022-08-18T00:19:03.685Z,97.91
2022-08-18T00:20:02.352Z,94.92
2022-08-18T00:21:03.251Z,96.17
2022-08-18T00:22:02.446Z,95.4
2022-08-18T00:23:03.321Z,96.66
2022-08-18T00:24:03.253Z,94.29
2022-08-18T00:25:03.876Z,93.85
2022-08-18T00:26:04.433Z,95.16
2022-08-18T00:27:04.656Z,96.22
2022-08-18T00:28:05.129Z,95.06
2022-08-18T00:29:05.635Z,94.1
2022-08-18T00:30:06.133Z,93.52
2022-08-18T00:31:06.037Z,93.23
2022-08-18T00:32:06.629Z,92.94
2022-08-18T00:33:06.636Z,93.62
2022-08-18T00:34:07.261Z,92.84
2022-08-18T00:35:07.772Z,92.94
2022-08-18T00:36:07.989Z,92.94
2022-08-18T00:37:08.187Z,92.16
2022-08-18T00:38:09.111Z,92.6
2022-08-18T00:39:09.521Z,92.65
2022-08-18T00:40:09.644Z,90.57
2022-08-18T00:41:10.153Z,91.44
2022-08-18T00:42:10.373Z,91.05
2022-08-18T00:43:14.715Z,92.79
2022-08-18T00:44:14.942Z,91.25
2022-08-18T00:45:15.441Z,91.53
2022-08-18T00:46:16.054Z,91.25
2022-08-18T00:47:16.545Z,92.98
2022-08-18T00:48:17.458Z,92.69
2022-08-18T00:49:18.172Z,93.85
2022-08-18T00:50:20.725Z,94.68
2022-08-18T00:51:19.648Z,93.8
2022-08-18T00:52:20.319Z,94.96
2022-08-18T00:53:21.325Z,96.7
2022-08-18T00:54:21.239Z,97.47
2022-08-18T00:55:21.435Z,98.25
2022-08-18T00:56:22.601Z,98.97
2022-08-18T00:57:23.513Z,98.49
2022-08-18T00:58:23.712Z,99.55
2022-08-18T00:59:23.912Z,99.99
2022-08-18T01:00:23.835Z,99.99
2022-08-18T01:01:24.377Z,99.99
2022-08-18T01:02:24.996Z,99.99
2022-08-18T01:03:30.774Z,99.99
2022-08-18T01:04:26.415Z,99.99
2022-08-18T01:05:27.304Z,99.99
2022-08-18T01:06:27.502Z,99.99
2022-08-18T01:07:27.831Z,99.99
2022-08-18T01:08:34.891Z,99.99
2022-08-18T01:09:29.511Z,99.99
2022-08-18T01:10:29.577Z,99.99
2022-08-18T01:11:30.194Z,99.99
2022-08-18T01:12:51.394Z,99.99
2022-08-18T01:13:39.432Z,99.99
2022-08-18T01:14:39.357Z,99.99
2022-08-18T01:15:40.254Z,99.99
2022-08-18T01:16:40.459Z,99.99
2022-08-18T01:17:40.716Z,99.99
2022-08-18T01:18:41.165Z,99.99
2022-08-18T01:19:42.089Z,99.99
2022-08-18T01:20:43.014Z,99.99
2022-08-18T01:21:42.913Z,99.99
2022-08-18T01:22:43.402Z,99.99
2022-08-18T01:23:44.415Z,99.99
2022-08-18T01:24:44.636Z,99.99
2022-08-18T01:25:45.573Z,99.99
2022-08-18T01:26:50.964Z,99.99
2022-08-18T01:27:46.590Z,99.99
2022-08-18T01:28:46.419Z,99.99
2022-08-18T01:29:49.077Z,99.99
2022-08-18T01:30:47.999Z,99.99
2022-08-18T01:32:00.276Z,99.99
2022-08-18T01:32:49.203Z,99.99
2022-08-18T01:33:49.440Z,99.99
2022-08-18T01:34:50.353Z,99.99
2022-08-18T01:35:51.272Z,99.99
2022-08-18T01:36:51.761Z,99.99
2022-08-18T01:37:52.361Z,99.99
2022-08-18T01:38:53.217Z,99.99
2022-08-18T01:41:31.926Z,99.99
2022-08-18T01:41:49.278Z,99.99
2022-08-18T01:42:49.105Z,99.99
2022-08-18T01:43:50.713Z,99.99
2022-08-18T01:44:50.450Z,99.99
2022-08-18T01:45:51.178Z,99.99
2022-08-18T01:46:51.400Z,99.99
2022-08-18T01:47:53.029Z,99.99
2022-08-18T01:48:52.918Z,99.99
2022-08-18T01:49:53.540Z,99.99
2022-08-18T01:50:53.739Z,99.99
2022-08-18T01:51:54.361Z,99.99
2022-08-18T01:52:55.355Z,99.99
2022-08-18T01:53:55.567Z,99.99
2022-08-18T01:54:55.875Z,99.99
2022-08-18T01:55:55.739Z,99.99
2022-08-18T01:56:56.943Z,99.99
2022-08-18T01:57:57.897Z,99.99
2022-08-18T01:59:00.743Z,99.99
2022-08-18T01:59:59.249Z,99.99
2022-08-18T02:00:59.691Z,99.99
2022-08-18T02:02:00.478Z,99.99
2022-08-18T02:03:07.627Z,99.99
2022-08-18T02:04:35.425Z,99.99
2022-08-18T02:05:24.529Z,99.99
2022-08-18T02:06:37.429Z,99.99
2022-08-18T02:07:27.373Z,99.99
2022-08-18T02:08:26.063Z,99.99
2022-08-18T02:09:29.554Z,99.99
2022-08-18T02:10:26.975Z,99.99
2022-08-18T02:11:27.908Z,99.99
2022-08-18T02:12:28.473Z,99.99
2022-08-18T02:13:28.701Z,99.99
2022-08-18T02:14:32.512Z,99.99
2022-08-18T02:15:29.861Z,99.99
2022-08-18T02:16:30.571Z,99.99
2022-08-18T02:17:31.065Z,99.99
2022-08-18T02:18:53.444Z,99.99
2022-08-18T02:19:32.354Z,99.99
2022-08-18T02:20:33.257Z,99.99
2022-08-18T02:21:33.961Z,99.99
2022-08-18T02:22:34.156Z,99.99
2022-08-18T02:23:34.796Z,99.99
2022-08-18T02:24:35.470Z,99.99
2022-08-18T02:25:35.457Z,99.99
2022-08-18T02:26:36.085Z,99.99
2022-08-18T02:27:38.432Z,99.99
2022-08-18T02:28:38.189Z,99.99
2022-08-18T02:29:38.926Z,99.99
2022-08-18T02:30:40.144Z,99.99
2022-08-18T02:31:41.041Z,99.99
2022-08-18T02:32:41.966Z,99.99
2022-08-18T02:33:42.157Z,99.99
2022-08-18T02:34:42.583Z,99.99
2022-08-18T02:36:44.051Z,99.99
2022-08-18T02:37:55.825Z,99.99
2022-08-18T02:38:48.731Z,99.99
2022-08-18T02:39:46.845Z,99.99
2022-08-18T02:40:47.696Z,99.99
2022-08-18T02:41:48.647Z,99.99
2022-08-18T02:42:48.853Z,99.99
2022-08-18T02:43:49.352Z,99.99
2022-08-18T02:44:49.850Z,99.99
2022-08-18T02:45:50.575Z,99.99
2022-08-18T02:46:50.768Z,99.99
2022-08-18T02:47:51.097Z,99.99
2022-08-18T02:48:51.939Z,99.99
2022-08-18T02:52:54.672Z,99.99
2022-08-18T02:53:59.231Z,99.99
2022-08-18T02:54:55.920Z,99.99
2022-08-18T02:55:56.393Z,99.99
2022-08-18T02:56:57.315Z,99.99
2022-08-18T02:57:57.457Z,99.99
2022-08-18T02:58:58.088Z,99.99
2022-08-18T02:59:59.654Z,99.99
2022-08-18T03:01:00.134Z,99.99
2022-08-18T03:02:00.522Z,99.99
2022-08-18T03:03:01.257Z,99.99
2022-08-18T03:04:01.896Z,99.99
2022-08-18T03:05:02.138Z,99.99
2022-08-18T03:06:04.061Z,99.99
2022-08-18T03:12:06.623Z,99.99
2022-08-18T03:13:06.840Z,99.99
2022-08-18T03:14:07.384Z,99.99
2022-08-18T03:15:08.336Z,99.99
2022-08-18T03:18:12.584Z,99.99
2022-08-18T03:19:13.343Z,99.99
2022-08-18T03:20:14.028Z,99.99
2022-08-18T03:21:14.694Z,99.99
2022-08-18T03:22:33.787Z,99.99
2022-08-18T03:23:15.578Z,99.99
2022-08-18T03:24:19.782Z,99.99
2022-08-18T03:25:16.535Z,99.99
2022-08-18T03:26:17.131Z,99.99
2022-08-18T03:27:18.050Z,99.99
2022-08-18T03:28:18.247Z,99.99
2022-08-18T03:29:18.525Z,99.99
2022-08-18T03:30:19.809Z,99.99
2022-08-18T03:31:20.029Z,99.99
2022-08-18T03:32:21.047Z,99.99
2022-08-18T03:33:21.151Z,99.99
2022-08-18T03:34:21.053Z,99.99
2022-08-18T03:35:21.550Z,99.99
2022-08-18T03:36:21.466Z,99.99
2022-08-18T03:37:22.412Z,99.99
2022-08-18T03:38:22.615Z,99.99
2022-08-18T03:39:23.068Z,99.99
2022-08-18T03:40:23.831Z,99.99
2022-08-18T03:42:04.409Z,99.99
2022-08-18T03:42:25.307Z,99.99
2022-08-18T03:43:55.477Z,99.99
2022-08-18T03:44:26.678Z,99.99
2022-08-18T03:45:26.592Z,99.99
2022-08-18T03:46:27.091Z,99.99
2022-08-18T03:47:27.435Z,99.99
2022-08-18T03:48:27.937Z,99.99
2022-08-18T03:49:28.693Z,99.99
2022-08-18T03:50:29.629Z,99.99
2022-08-18T03:51:30.543Z,99.99
2022-08-18T03:52:30.434Z,99.99
2022-08-18T03:53:30.943Z,99.99
2022-08-18T03:54:31.163Z,99.99
2022-08-18T03:55:31.067Z,99.99
2022-08-18T03:56:31.700Z,99.99
2022-08-18T03:57:32.613Z,99.99
2022-08-18T03:58:33.415Z,99.99
2022-08-18T03:59:34.148Z,99.99
2022-08-18T04:00:34.367Z,99.99
2022-08-18T04:01:34.732Z,99.99
2022-08-18T04:02:35.408Z,99.99
2022-08-18T04:03:35.609Z,99.99
2022-08-18T04:04:37.477Z,99.99
2022-08-18T04:05:36.660Z,99.99
2022-08-18T04:06:37.157Z,99.99
2022-08-18T04:07:37.350Z,99.99
2022-08-18T04:08:38.132Z,99.99
2022-08-18T04:09:39.415Z,99.99
2022-08-18T04:10:40.314Z,99.99
2022-08-18T04:11:42.653Z,99.99
2022-08-18T04:12:41.358Z,99.99
2022-08-18T04:13:41.861Z,99.99
2022-08-18T04:14:42.360Z,99.99
2022-08-18T04:15:42.554Z,99.99
2022-08-18T04:16:43.056Z,99.99
2022-08-18T04:18:09.766Z,99.99
2022-08-18T04:18:44.237Z,99.99
2022-08-18T04:19:45.578Z,99.99
2022-08-18T04:21:05.331Z,99.99
2022-08-18T04:22:47.453Z,99.99
2022-08-18T04:23:49.337Z,99.99
2022-08-18T04:24:50.898Z,99.99
2022-08-18T04:25:49.331Z,99.99
2022-08-18T04:54:07.440Z,99.99
2022-08-18T04:55:07.351Z,99.99
2022-08-18T04:56:08.549Z,99.99
2022-08-18T04:57:08.676Z,99.99
2022-08-18T04:58:09.172Z,99.99
2022-08-18T04:59:10.074Z,99.99
2022-08-18T05:00:10.208Z,99.99
2022-08-18T05:01:10.546Z,99.99
2022-08-18T05:02:14.577Z,99.99
2022-08-18T05:03:11.835Z,99.99
2022-08-18T05:04:12.737Z,99.99
2022-08-18T05:05:13.228Z,99.99
2022-08-18T05:06:13.861Z,99.99
2022-08-18T05:07:14.708Z,99.99
2022-08-18T05:08:14.850Z,99.99
2022-08-18T05:09:16.262Z,99.99
2022-08-18T05:10:18.438Z,99.99
2022-08-18T05:11:19.079Z,99.99
2022-08-18T05:12:20.360Z,99.99
2022-08-18T05:13:20.312Z,99.99
2022-08-18T05:14:20.507Z,99.99
2022-08-18T05:15:21.003Z,99.99
2022-08-18T05:16:33.312Z,99.99
2022-08-18T05:17:22.380Z,99.99
2022-08-18T05:18:25.009Z,99.99
2022-08-18T05:19:26.196Z,99.99
2022-08-18T05:20:25.003Z,99.99
2022-08-18T05:21:25.806Z,99.99
2022-08-18T05:22:33.933Z,99.99
2022-08-18T05:23:28.770Z,99.99
2022-08-18T05:24:30.765Z,99.99
2022-08-18T05:25:27.602Z,99.99
2022-08-18T05:26:27.799Z,99.99
2022-08-18T05:27:29.020Z,99.99
2022-08-18T05:28:28.940Z,99.99
2022-08-18T05:29:30.132Z,99.99
2022-08-18T05:30:30.191Z,99.99
2022-08-18T05:31:31.425Z,99.99
2022-08-18T05:32:51.857Z,99.99
2022-08-18T05:33:31.778Z,99.99
2022-08-18T05:34:32.274Z,99.99
2022-08-18T05:35:32.193Z,99.99
2022-08-18T05:36:33.116Z,99.99
2022-08-18T05:37:35.668Z,99.99
2022-08-18T05:38:33.859Z,99.99
2022-08-18T05:39:35.223Z,99.99
2022-08-18T05:40:35.687Z,99.99
2022-08-18T05:41:35.888Z,99.99
2022-08-18T05:42:37.095Z,99.99
2022-08-18T05:43:37.296Z,99.99
2022-08-18T05:44:38.317Z,99.99
2022-08-18T05:45:39.238Z,99.99
2022-08-18T05:46:39.443Z,99.99
2022-08-18T05:47:39.941Z,99.99
2022-08-18T05:48:44.960Z,99.99
2022-08-18T05:49:40.878Z,99.99
2022-08-18T05:50:41.929Z,99.99
2022-08-18T05:51:42.154Z,99.99
2022-08-18T05:52:42.355Z,99.99
2022-08-18T05:53:43.842Z,99.99
2022-08-18T05:54:42.741Z,99.99
2022-08-18T05:55:47.729Z,99.99
2022-08-18T05:56:44.762Z,99.99
2022-08-18T05:57:44.983Z,99.99
2022-08-18T05:58:44.963Z,99.99
2022-08-18T05:59:47.914Z,99.99
2022-08-18T06:00:46.061Z,99.99
2022-08-18T06:01:47.423Z,99.99
2022-08-18T06:02:47.766Z,99.99
2022-08-18T06:03:51.994Z,99.99
2022-08-18T06:04:48.486Z,99.99
2022-08-18T06:05:49.104Z,99.99
2022-08-18T06:06:52.812Z,99.99
2022-08-18T06:07:50.663Z,99.99
2022-08-18T06:08:51.285Z,99.99
2022-08-18T06:09:51.628Z,99.99
2022-08-18T06:10:52.217Z,99.99
2022-08-18T06:11:52.713Z,99.99
2022-08-18T06:12:53.359Z,99.99
2022-08-18T06:13:57.839Z,99.99
2022-08-18T06:14:54.070Z,99.99
2022-08-18T06:15:54.391Z,99.99
2022-08-18T06:16:54.619Z,99.99
2022-08-18T06:17:54.970Z,99.99
2022-08-18T06:18:54.871Z,99.99
2022-08-18T06:19:56.072Z,99.99
2022-08-18T06:20:56.088Z,99.99
2022-08-18T06:21:56.708Z,99.99
2022-08-18T06:23:00.912Z,99.99
2022-08-18T06:23:58.313Z,99.99
2022-08-18T06:24:59.270Z,99.99
2022-08-18T06:26:00.210Z,99.99
2022-08-18T06:27:01.139Z,99.99
2022-08-18T06:28:01.451Z,99.99
2022-08-18T06:29:02.955Z,99.99
2022-08-18T06:30:02.327Z,99.99
2022-08-18T06:31:03.035Z,99.99
2022-08-18T06:32:03.261Z,99.99
2022-08-18T06:33:03.455Z,99.99
2022-08-18T06:34:04.804Z,99.99
2022-08-18T06:35:05.452Z,99.99
2022-08-18T06:36:06.371Z,99.99
2022-08-18T06:37:07.520Z,99.99
2022-08-18T06:38:08.155Z,99.99
2022-08-18T06:39:08.653Z,99.99
2022-08-18T06:40:09.480Z,99.99
2022-08-18T06:41:09.924Z,99.99
2022-08-18T06:42:10.718Z,99.99
2022-08-18T06:43:10.917Z,99.99
2022-08-18T06:44:10.831Z,99.99
2022-08-18T06:45:11.753Z,99.99
2022-08-18T06:46:11.918Z,99.99
2022-08-18T06:47:12.124Z,99.99
2022-08-18T06:48:20.906Z,99.99
2022-08-18T06:49:14.140Z,99.99
2022-08-18T06:50:14.855Z,99.99
2022-08-18T06:51:15.424Z,99.99
2022-08-18T06:52:15.925Z,99.99
2022-08-18T06:53:33.277Z,99.99
2022-08-18T06:54:16.478Z,99.99
2022-08-18T06:55:16.694Z,99.99
2022-08-18T06:56:31.916Z,99.99
2022-08-18T06:57:17.247Z,99.99
2022-08-18T06:58:18.178Z,99.99
2022-08-18T06:59:19.097Z,99.99
2022-08-18T07:00:20.023Z,99.99
2022-08-18T07:01:21.607Z,99.99
2022-08-18T07:02:21.386Z,99.99
2022-08-18T07:03:21.663Z,99.99
2022-08-18T07:04:22.588Z,99.99
2022-08-18T07:05:23.528Z,99.99
2022-08-18T07:06:23.750Z,99.99
2022-08-18T07:07:23.981Z,99.99
2022-08-18T07:08:24.312Z,99.99
2022-08-18T07:09:24.989Z,99.99
2022-08-18T07:10:25.635Z,99.99
2022-08-18T07:11:26.088Z,99.99
2022-08-18T07:12:32.230Z,99.99
2022-08-18T07:13:27.909Z,99.99
2022-08-18T07:14:28.342Z,99.99
2022-08-18T07:15:29.542Z,99.99
2022-08-18T07:16:58.653Z,99.99
2022-08-18T07:17:49.377Z,99.99
2022-08-18T07:18:31.302Z,99.99
2022-08-18T07:19:32.243Z,99.99
2022-08-18T07:20:32.433Z,99.99
2022-08-18T07:21:33.466Z,99.99
2022-08-18T07:22:45.116Z,99.99
2022-08-18T07:23:34.588Z,99.99
2022-08-18T07:24:34.768Z,99.99
2022-08-18T07:25:35.400Z,99.99
2022-08-18T07:26:36.392Z,99.99
2022-08-18T07:27:36.636Z,99.99
2022-08-18T07:28:38.008Z,99.99
2022-08-18T07:29:38.059Z,99.99
2022-08-18T07:30:50.675Z,99.99
2022-08-18T07:32:03.581Z,99.99
2022-08-18T07:33:04.714Z,99.99
2022-08-18T07:34:05.340Z,99.99
2022-08-18T07:35:05.835Z,99.99
2022-08-18T07:36:06.760Z,99.99
2022-08-18T07:37:06.997Z,99.99
2022-08-18T07:38:41.798Z,99.99
2022-08-18T07:39:08.219Z,99.99
2022-08-18T07:40:09.039Z,99.99
2022-08-18T07:41:09.224Z,99.99
2022-08-18T07:42:10.545Z,99.99
2022-08-18T07:43:11.173Z,99.99
2022-08-18T07:44:18.407Z,99.99
2022-08-18T07:45:11.743Z,99.99
2022-08-18T07:46:13.105Z,99.99
2022-08-18T07:47:13.333Z,99.99
2022-08-18T07:48:40.375Z,99.99
2022-08-18T07:49:14.590Z,99.99
2022-08-18T07:50:57.825Z,99.99
2022-08-18T07:51:23.008Z,99.99
2022-08-18T07:52:53.150Z,99.99
2022-08-18T07:54:00.838Z,99.99
2022-08-18T07:54:55.931Z,99.99
2022-08-18T07:55:54.761Z,99.99
2022-08-18T07:56:55.669Z,99.99
2022-08-18T07:57:56.249Z,99.99
2022-08-18T07:58:56.735Z,99.99
2022-08-18T07:59:57.336Z,99.99
2022-08-18T08:01:04.531Z,99.99
2022-08-18T08:01:59.246Z,99.99
2022-08-18T08:03:00.294Z,99.99
2022-08-18T08:04:00.223Z,99.99
2022-08-18T08:05:01.323Z,99.99
2022-08-18T08:06:01.254Z,99.99
2022-08-18T08:07:28.580Z,99.99
2022-08-18T08:08:03.206Z,99.99
2022-08-18T08:09:03.400Z,99.99
2022-08-18T08:10:04.048Z,99.99
2022-08-18T08:11:04.545Z,99.99
2022-08-18T08:12:04.559Z,99.99
2022-08-18T08:13:16.958Z,99.99
2022-08-18T08:14:08.399Z,99.99
2022-08-18T08:15:09.307Z,99.99
2022-08-18T08:16:10.042Z,99.99
2022-08-18T08:17:10.244Z,99.99
2022-08-18T08:18:11.463Z,99.99
2022-08-18T08:19:18.067Z,99.99
2022-08-18T08:20:13.498Z,99.99
2022-08-18T08:21:14.550Z,99.99
2022-08-18T08:22:14.774Z,99.99
2022-08-18T08:23:15.212Z,99.99
2022-08-18T08:24:16.431Z,99.99
2022-08-18T08:25:49.780Z,99.99
2022-08-18T08:26:18.012Z,99.99
2022-08-18T08:27:18.940Z,99.99
2022-08-18T08:28:19.142Z,99.99
2022-08-18T08:29:20.047Z,99.99
2022-08-18T08:30:20.317Z,99.99
2022-08-18T08:31:43.101Z,99.99
2022-08-18T08:32:21.750Z,99.99
2022-08-18T08:33:22.924Z,99.99
2022-08-18T08:34:22.827Z,99.99
2022-08-18T08:35:54.937Z,99.99
2022-08-18T08:36:24.437Z,99.99
2022-08-18T08:37:24.658Z,99.99
2022-08-18T08:38:47.957Z,99.99
2022-08-18T08:39:25.865Z,99.99
2022-08-18T08:40:27.441Z,99.99
2022-08-18T08:41:27.734Z,99.99
2022-08-18T08:42:39.924Z,99.99
2022-08-18T08:43:28.245Z,99.99
2022-08-18T08:44:28.766Z,99.99
2022-08-18T08:45:29.184Z,99.99
2022-08-18T08:46:30.117Z,99.99
2022-08-18T08:47:30.609Z,99.99
2022-08-18T08:48:30.815Z,99.99
2022-08-18T08:49:31.745Z,99.99
2022-08-18T08:50:31.648Z,99.99
2022-08-18T08:51:35.741Z,99.99
2022-08-18T08:52:32.898Z,99.99
2022-08-18T08:53:33.218Z,99.99
2022-08-18T08:54:34.602Z,99.99
2022-08-18T08:55:35.230Z,99.99
2022-08-18T08:56:36.458Z,99.99
2022-08-18T08:57:36.684Z,99.99
2022-08-18T08:58:38.950Z,99.99
2022-08-18T08:59:40.496Z,99.99
2022-08-18T09:00:39.154Z,99.99
2022-08-18T09:01:39.638Z,99.99
2022-08-18T09:02:53.564Z,99.99
2022-08-18T09:03:41.597Z,99.99
2022-08-18T09:04:53.326Z,99.99
2022-08-18T09:05:42.763Z,99.99
2022-08-18T09:06:43.242Z,99.99
2022-08-18T09:07:43.868Z,99.99
2022-08-18T09:08:44.610Z,99.99
2022-08-18T09:10:45.825Z,99.99
2022-08-18T09:11:46.759Z,99.99
2022-08-18T09:12:47.827Z,99.99
2022-08-18T09:13:48.524Z,99.99
2022-08-18T09:14:49.462Z,99.99
2022-08-18T09:15:50.437Z,96.89
2022-08-18T09:16:53.493Z,94.27
2022-08-18T09:17:51.706Z,92.82
2022-08-18T09:18:52.640Z,90.54
2022-08-18T09:19:53.278Z,88.7
2022-08-18T09:20:54.791Z,90.88
2022-08-18T09:21:55.299Z,89.71
2022-08-18T09:22:56.484Z,88.26
2022-08-18T09:23:56.505Z,87.96
2022-08-18T09:24:57.680Z,88.35
2022-08-18T09:25:58.191Z,88.49
2022-08-18T09:26:58.182Z,86.11
2022-08-18T09:28:16.223Z,85.04
2022-08-18T09:28:59.448Z,84.71
2022-08-18T09:29:59.655Z,82.9
2022-08-18T09:30:59.991Z,80.48
2022-08-18T09:32:00.770Z,81.16
2022-08-18T09:33:00.609Z,82.28
2022-08-18T09:34:06.810Z,84.14
2022-08-18T09:35:05.410Z,86.72
2022-08-18T09:36:04.264Z,86.96
2022-08-18T09:39:09.073Z,86.43
2022-08-18T09:43:14.161Z,88.46
2022-08-18T09:46:17.812Z,87.74
2022-08-18T09:47:30.275Z,87.93
2022-08-18T09:48:33.864Z,87.68
2022-08-18T09:49:28.604Z,88.61
2022-08-18T09:50:44.785Z,88.76
2022-08-18T09:51:46.745Z,89.05
2022-08-18T09:52:45.471Z,90.41
2022-08-18T09:53:45.996Z,90.07
2022-08-18T09:54:46.204Z,91.72
2022-08-18T09:56:01.251Z,92.78
2022-08-18T09:57:00.919Z,92.68
2022-08-18T09:57:51.555Z,92.64
2022-08-18T09:58:55.340Z,92.54
2022-08-18T09:59:54.632Z,93.7
2022-08-18T10:00:56.666Z,95.06
2022-08-18T10:01:57.755Z,95.4
2022-08-18T10:02:55.165Z,95.4
2022-08-18T10:03:55.390Z,96.46
2022-08-18T10:04:56.241Z,96.07
2022-08-18T10:05:57.229Z,96.65
2022-08-18T10:06:57.031Z,96.36
2022-08-18T10:07:58.570Z,96.84
2022-08-18T10:08:58.630Z,96.65
2022-08-18T10:09:59.187Z,96.94
2022-08-18T10:13:03.323Z,97.04
2022-08-18T10:14:04.378Z,96.61
2022-08-18T10:15:05.197Z,97.33
2022-08-18T10:16:16.317Z,96.8
2022-08-18T10:20:23.995Z,96.31
2022-08-18T10:21:14.295Z,96.7
2022-08-18T10:22:15.926Z,96.12
2022-08-18T10:23:14.930Z,96.61
2022-08-18T10:24:45.528Z,96.31
2022-08-18T10:25:27.879Z,96.41
2022-08-18T10:26:20.311Z,97.09
2022-08-18T10:27:18.724Z,95.83
2022-08-18T10:28:18.603Z,97.14
2022-08-18T10:29:21.499Z,96.65
2022-08-18T10:30:20.086Z,96.36
2022-08-18T10:33:24.135Z,94.43
2022-08-18T10:34:24.799Z,95.25
2022-08-18T10:35:29.179Z,93.26
2022-08-18T10:36:25.093Z,93.02
2022-08-18T10:39:29.243Z,87.6
2022-08-18T10:42:37.355Z,87.01
2022-08-18T10:44:15.451Z,84.67
2022-08-18T10:47:12.063Z,80.11
2022-08-18T10:48:24.234Z,79.28
2022-08-18T10:54:34.773Z,80.73
2022-08-18T10:55:56.401Z,81.02
2022-08-18T10:56:57.747Z,80.4
2022-08-18T10:57:57.620Z,81.27
2022-08-18T10:58:58.126Z,81.43
2022-08-18T11:00:00.422Z,82.4
2022-08-18T11:00:59.346Z,82.1
2022-08-18T11:01:59.983Z,82.26
2022-08-18T11:03:30.392Z,83.52
2022-08-18T11:04:44.072Z,84
2022-08-18T11:05:41.639Z,83.86
2022-08-18T11:06:42.083Z,84.16
2022-08-18T11:07:45.181Z,85.03
2022-08-18T11:12:41.111Z,87.02
2022-08-18T11:13:41.841Z,88.71
2022-08-18T11:14:42.754Z,89.01
2022-08-18T11:15:43.770Z,89.49
2022-08-18T11:16:47.026Z,89.11
2022-08-18T11:17:46.136Z,87.95
2022-08-18T11:18:49.051Z,88.85
2022-08-18T11:19:48.984Z,88.18
2022-08-18T11:20:48.727Z,87.74
2022-08-18T11:21:51.068Z,88.18
2022-08-18T11:24:51.649Z,87.89
2022-08-18T11:25:53.889Z,87.99
2022-08-18T11:26:58.583Z,89.34
2022-08-18T11:27:53.891Z,89.29
2022-08-18T11:28:54.593Z,89.11
2022-08-18T11:29:54.660Z,89.39
2022-08-18T11:30:54.980Z,90.56
2022-08-18T11:34:59.804Z,89.97
2022-08-18T11:36:01.266Z,90.75
2022-08-18T11:37:01.099Z,91.42
2022-08-18T11:38:01.593Z,90.84
2022-08-18T11:39:02.761Z,92.4
2022-08-18T11:40:03.807Z,92.68
2022-08-18T11:44:18.981Z,92.68
2022-08-18T11:45:23.585Z,92.79
2022-08-18T11:46:24.207Z,93.56
2022-08-18T11:49:31.290Z,93.75
2022-08-18T11:50:24.732Z,93.37
2022-08-18T11:51:29.152Z,94.04
2022-08-18T11:55:30.570Z,94.33
2022-08-18T11:58:38.869Z,94.62
2022-08-18T12:00:01.140Z,95.4
2022-08-18T12:00:35.894Z,95.2
2022-08-18T12:01:41.769Z,94.24
2022-08-18T12:02:36.867Z,95.59
2022-08-18T12:03:37.536Z,94.91
2022-08-18T12:04:37.782Z,95.1
2022-08-18T12:05:59.455Z,95.88
2022-08-18T12:06:39.432Z,96.84
2022-08-18T12:07:40.051Z,95.78
2022-08-18T12:10:43.839Z,95.98
2022-08-18T12:12:03.301Z,93.99
2022-08-18T12:13:04.567Z,93.07
2022-08-18T12:14:29.998Z,93.26
2022-08-18T12:17:07.696Z,94.23
2022-08-18T12:18:07.880Z,92.88
2022-08-18T12:19:10.565Z,92.97
2022-08-18T12:20:11.800Z,94.57
2022-08-18T12:21:11.447Z,92.73
2022-08-18T12:22:17.401Z,89.53
2022-08-18T12:23:11.221Z,88.18
2022-08-18T12:24:11.769Z,88.9
2022-08-18T12:25:24.625Z,89.58
2022-08-18T12:26:37.980Z,90.26
2022-08-18T12:30:21.921Z,91.32
2022-08-18T12:33:17.910Z,87.01
2022-08-18T12:34:51.859Z,87.98
2022-08-18T12:38:19.180Z,89
2022-08-18T12:39:10.685Z,90.36
2022-08-18T12:40:08.581Z,91.81
2022-08-18T12:44:18.430Z,90.94
2022-08-18T12:45:14.295Z,92.19
2022-08-18T12:46:17.474Z,92.87
2022-08-18T12:47:14.326Z,93.35
2022-08-18T12:48:16.165Z,92.1
2022-08-18T12:49:15.650Z,92
2022-08-18T12:50:16.148Z,92.63
2022-08-18T12:53:29.318Z,92.34
2022-08-18T12:55:03.308Z,92.83
2022-08-18T12:56:02.886Z,92.73
2022-08-18T12:57:03.902Z,91.08
2022-08-18T12:58:04.912Z,88.95
2022-08-18T12:59:05.302Z,91.76
2022-08-18T13:00:05.483Z,91.38
2022-08-18T13:01:08.979Z,92.83
2022-08-18T13:02:06.086Z,92.58
2022-08-18T13:03:06.987Z,92.97
2022-08-18T13:04:18.690Z,94.81
2022-08-18T13:05:13.896Z,95.2
2022-08-18T13:06:14.718Z,94.81
2022-08-18T13:07:15.919Z,96.46
2022-08-18T13:08:27.765Z,95.59
2022-08-18T13:09:48.419Z,95.29
2022-08-18T13:10:51.363Z,95.1
2022-08-18T13:11:32.123Z,95.54
2022-08-18T13:12:30.208Z,95.83
2022-08-18T13:13:35.353Z,96.51
2022-08-18T13:14:32.621Z,98.05
2022-08-18T13:15:32.790Z,97.96
2022-08-18T13:16:54.536Z,97.47
2022-08-18T13:17:41.495Z,97.09
2022-08-18T13:18:34.628Z,97.47
2022-08-18T13:19:38.481Z,96.51
2022-08-18T13:20:35.241Z,96.65
2022-08-18T13:21:46.758Z,97.18
2022-08-18T13:22:38.259Z,97.18
2022-08-18T13:23:37.118Z,98.2
2022-08-18T13:24:38.071Z,99.07
2022-08-18T13:25:46.739Z,98.97
2022-08-18T13:26:38.213Z,98.88
2022-08-18T13:27:43.699Z,99.07
2022-08-18T13:29:02.013Z,98.3
2022-08-18T13:29:42.019Z,98.39
2022-08-18T13:30:40.827Z,98.39
2022-08-18T13:31:44.921Z,98.49
2022-08-18T13:33:05.638Z,97.42
2022-08-18T13:34:30.315Z,97.09
2022-08-18T13:35:29.856Z,97.28
2022-08-18T13:36:36.073Z,98.39
2022-08-18T13:37:37.748Z,96.55
2022-08-18T13:38:37.173Z,97.23
2022-08-18T13:39:40.030Z,98.39
2022-08-18T13:40:45.733Z,97.81
2022-08-18T13:41:39.803Z,97.52
2022-08-18T13:42:55.923Z,97.62
2022-08-18T13:43:40.437Z,97.81
2022-08-18T13:44:41.558Z,97.62
2022-08-18T13:45:42.229Z,97.33
2022-08-18T13:46:42.415Z,97.04
2022-08-18T13:47:43.739Z,97.13
2022-08-18T13:48:44.096Z,96.65
2022-08-18T13:49:52.535Z,96.84
2022-08-18T13:50:45.283Z,97.13
2022-08-18T13:51:48.203Z,98.2
2022-08-18T13:52:50.073Z,99.26
2022-08-18T13:54:29.971Z,98.39
2022-08-18T13:54:59.660Z,97.62
2022-08-18T13:55:59.390Z,98.49
2022-08-18T13:56:59.387Z,98
2022-08-18T13:58:00.557Z,98.39
2022-08-18T13:59:00.737Z,98.68
2022-08-18T14:00:01.065Z,97.42
2022-08-18T14:01:42.678Z,98.54
2022-08-18T14:02:10.602Z,99.55
2022-08-18T14:03:11.109Z,99.94
2022-08-18T14:04:20.372Z,97.33
2022-08-18T14:05:12.646Z,97.38
2022-08-18T14:06:13.867Z,97.18
2022-08-18T14:07:18.800Z,98.35
2022-08-18T14:08:18.992Z,99.31
2022-08-18T14:09:28.173Z,98.54
2022-08-18T14:10:18.518Z,98.44
2022-08-18T14:11:16.809Z,98.54
2022-08-18T14:12:32.707Z,99.99
2022-08-18T14:13:30.293Z,99.99
2022-08-18T14:14:20.873Z,99.99
2022-08-18T14:15:19.623Z,99.99
2022-08-18T14:16:26.685Z,99.99
2022-08-18T14:17:22.190Z,99.99
2022-08-18T14:18:21.900Z,99.99
2022-08-18T14:19:23.206Z,99.99
2022-08-18T14:20:27.775Z,99.31
2022-08-18T14:21:28.796Z,99.11
2022-08-18T14:22:23.725Z,99.41
2022-08-18T14:23:32.454Z,98.44
2022-08-18T14:24:30.445Z,98.54
2022-08-18T14:25:28.334Z,98.44
2022-08-18T14:26:29.399Z,99.02
2022-08-18T14:27:27.643Z,99.6
2022-08-18T14:28:30.744Z,99.99
2022-08-18T14:29:51.834Z,99.99
2022-08-18T14:30:29.708Z,99.99
2022-08-18T14:31:34.140Z,99.99
2022-08-18T14:32:36.051Z,99.99
2022-08-18T14:33:58.587Z,99.99
2022-08-18T14:34:34.092Z,99.99
2022-08-18T14:36:10.676Z,99.99
2022-08-18T14:36:36.550Z,99.99
2022-08-18T14:37:39.358Z,99.99
2022-08-18T14:38:39.255Z,99.99
2022-08-18T14:39:38.558Z,99.99
2022-08-18T14:40:41.646Z,99.99
2022-08-18T14:41:40.970Z,99.99
2022-08-18T14:42:54.215Z,99.99
2022-08-18T14:44:23.663Z,99.99
2022-08-18T14:44:54.001Z,99.99
2022-08-18T14:45:58.015Z,99.99
2022-08-18T14:46:59.405Z,99.99
2022-08-18T14:47:55.952Z,99.99
2022-08-18T14:48:56.160Z,99.99
2022-08-18T14:49:56.516Z,99.99
2022-08-18T14:50:57.906Z,99.99
2022-08-18T14:51:57.377Z,99.99
2022-08-18T14:52:59.089Z,99.99
2022-08-18T14:54:00.773Z,99.99